• Join FlightAware (Why Join?)
  • Login
  • US Flag 
06:10PM EST


 

Airport Tracker/Info


-or-


 

Live Flight TrackerFlight Track Log ✈ UAL4401 ✈ 20-Apr-2013 ✈ KIAH - KIAD

Flight Track Log - Related Links

Times and Time Zones

All times are in EDT time to prevent confusion due to time zone crossing. See the UAL4401 flight status page for this flight to view local times or setup timezone preferences in your user account.

Time Position Orientation Groundspeed Altitude Reporting Facility
EDT Latitude Longitude Course Direction KTS MPH feet Rate Location/Type
08:43PM 29.8583 -93.9751 81° East  Level FlightAware Approximate
08:44PM 29.8702 -93.8388 82° East  Level FlightAware Approximate
08:45PM 29.8833 -93.7025 90° East  Level FlightAware Approximate
08:46PM 29.8947 -93.5541 82° East  Level FlightAware Approximate
08:47PM 29.9121 -93.4061 82° East  Level FlightAware Approximate
08:48PM 29.9213 -93.2577 78° East  Level FlightAware Approximate
08:49PM 29.9479 -93.1115 78° East  Level FlightAware Approximate
08:50PM 29.9615 -92.9630 84° East  Level FlightAware Approximate
08:51PM 29.9667 -92.8139 90° East  Level FlightAware Approximate
08:52PM 29.9811 -92.6658 81° East  Level FlightAware Approximate
08:53PM 29.9921 -92.5170 85° East  Level FlightAware Approximate
08:54PM 30.0032 -92.3681 85° East  Level FlightAware Approximate
08:55PM 30.0140 -92.2191 85° East  Level FlightAware Approximate
08:56PM 30.0248 -92.0702 85° East  Level FlightAware Approximate
08:57PM 30.0353 -91.9211 85° East  Level FlightAware Approximate
08:58PM 30.0457 -91.7721 85° East  Level FlightAware Approximate
08:59PM 30.0560 -91.6230 85° East  Level FlightAware Approximate
09:00PM 30.0660 -91.4739 86° East  Level FlightAware Approximate
09:01PM 30.0759 -91.3248 86° East  Level FlightAware Approximate
09:02PM 30.0856 -91.1756 86° East  Level FlightAware Approximate
09:03PM 30.0952 -91.0264 86° East  Level FlightAware Approximate
09:04PM 30.1176 -90.8799 74° East  Level FlightAware Approximate
09:05PM 30.1535 -90.7361 74° East  Level FlightAware Approximate
09:06PM 30.1895 -90.5922 74° East  Level FlightAware Approximate
09:07PM 30.2254 -90.4483 74° East  Level FlightAware Approximate
09:08PM 30.2611 -90.3043 74° East  Level FlightAware Approximate
09:09PM 30.2967 -90.1602 74° East  Level FlightAware Approximate
09:10PM 30.3322 -90.0160 74° East  Level FlightAware Approximate
09:11PM 30.3674 -89.8717 74° East  Level FlightAware Approximate
09:12PM 30.4025 -89.7272 74° East  Level FlightAware Approximate
09:13PM 30.4374 -89.5826 75° East  Level FlightAware Approximate
09:14PM 30.4709 -89.4376 75° East  Level FlightAware Approximate
09:15PM 30.5043 -89.2925 75° East  Level FlightAware Approximate
09:16PM 30.5375 -89.1473 75° East  Level FlightAware Approximate
09:17PM 30.5706 -89.0019 75° East  Level FlightAware Approximate
09:18PM 30.6035 -88.8565 75° East  Level FlightAware Approximate
09:19PM 30.6362 -88.7110 75° East  Level FlightAware Approximate
09:20PM 30.6688 -88.5654 75° East  Level FlightAware Approximate
09:21PM 30.7012 -88.4196 75° East  Level FlightAware Approximate
09:22PM 30.7613 -88.2909 49° Northeast  Level FlightAware Approximate
09:23PM 30.8468 -88.1777 49° Northeast  Level FlightAware Approximate
09:24PM 30.9321 -88.0643 49° Northeast  Level FlightAware Approximate
09:25PM 31.0174 -87.9508 49° Northeast  Level FlightAware Approximate
09:26PM 31.1026 -87.8369 49° Northeast  Level FlightAware Approximate
09:27PM 31.1876 -87.7229 49° Northeast  Level FlightAware Approximate
09:28PM 31.2722 -87.6084 52° Northeast  Level FlightAware Approximate
09:29PM 31.3531 -87.4902 49° Northeast  Level FlightAware Approximate
09:30PM 31.4383 -87.3760 49° Northeast  Level FlightAware Approximate
09:31PM 31.5234 -87.2616 49° Northeast  Level FlightAware Approximate
09:32PM 31.6084 -87.1470 49° Northeast  Level FlightAware Approximate
09:33PM 31.6933 -87.0322 49° Northeast  Level FlightAware Approximate
09:34PM 31.7781 -86.9172 49° Northeast  Level FlightAware Approximate
09:35PM 31.8628 -86.8020 49° Northeast  Level FlightAware Approximate
09:36PM 31.9474 -86.6866 49° Northeast  Level FlightAware Approximate
09:37PM 32.0318 -86.5709 49° Northeast  Level FlightAware Approximate
09:38PM 32.1162 -86.4551 49° Northeast  Level FlightAware Approximate
09:39PM 32.2005 -86.3390 49° Northeast  Level FlightAware Approximate
09:40PM 32.2814 -86.2196 52° Northeast  Level FlightAware Approximate
09:41PM 32.3617 -86.0994 52° Northeast  Level FlightAware Approximate
09:42PM 32.4420 -85.9792 52° Northeast  Level FlightAware Approximate
09:43PM 32.5221 -85.8587 52° Northeast  Level FlightAware Approximate
09:44PM 32.6022 -85.7380 52° Northeast  Level FlightAware Approximate
09:45PM 32.6821 -85.6171 52° Northeast  Level FlightAware Approximate
09:46PM 32.7620 -85.4960 52° Northeast  Level FlightAware Approximate
09:47PM 32.8417 -85.3746 52° Northeast  Level FlightAware Approximate
09:48PM 32.9213 -85.2531 52° Northeast  Level FlightAware Approximate
09:49PM 33.0007 -85.1313 52° Northeast  Level FlightAware Approximate
09:50PM 33.0801 -85.0093 52° Northeast  Level FlightAware Approximate
09:51PM 33.1593 -84.8871 52° Northeast  Level FlightAware Approximate
09:52PM 33.2394 -84.7655 52° Northeast  Level FlightAware Approximate
09:53PM 33.3198 -84.6442 52° Northeast  Level FlightAware Approximate
09:54PM 33.4000 -84.5226 52° Northeast  Level FlightAware Approximate
09:55PM 33.4801 -84.4007 52° Northeast  Level FlightAware Approximate
09:56PM 33.5602 -84.2787 52° Northeast  Level FlightAware Approximate
09:57PM 33.6399 -84.1562 53° Northeast  Level FlightAware Approximate
09:58PM 33.7178 -84.0320 53° Northeast  Level FlightAware Approximate
09:59PM 33.7956 -83.9076 53° Northeast  Level FlightAware Approximate
10:00PM 33.8732 -83.7829 53° Northeast  Level FlightAware Approximate
10:01PM 33.9522 -83.6593 52° Northeast  Level FlightAware Approximate
10:02PM 34.0312 -83.5357 52° Northeast  Level FlightAware Approximate
10:03PM 34.1101 -83.4118 52° Northeast  Level FlightAware Approximate
10:04PM 34.1889 -83.2877 52° Northeast  Level FlightAware Approximate
10:05PM 34.2676 -83.1634 53° Northeast  Level FlightAware Approximate
10:06PM 34.3461 -83.0388 53° Northeast  Level FlightAware Approximate
10:07PM 34.4246 -82.9140 53° Northeast  Level FlightAware Approximate
10:08PM 34.5011 -82.7874 54° Northeast  Level FlightAware Approximate
10:09PM 34.5773 -82.6604 54° Northeast  Level FlightAware Approximate
10:10PM 34.6539 -82.5336 53° Northeast  Level FlightAware Approximate
10:11PM 34.7318 -82.4078 53° Northeast  Level FlightAware Approximate
10:12PM 34.8095 -82.2818 53° Northeast  Level FlightAware Approximate
10:13PM 34.8871 -82.1556 53° Northeast  Level FlightAware Approximate
10:14PM 34.9646 -82.0292 53° Northeast  Level FlightAware Approximate
10:15PM 35.0403 -81.9011 61° Northeast  Level FlightAware Approximate
10:16PM 35.1024 -81.7624 56° Northeast  Level FlightAware Approximate
10:17PM 35.1752 -81.6314 56° Northeast  Level FlightAware Approximate
10:18PM 35.2434 -81.4968 58° Northeast  Level FlightAware Approximate
10:19PM 35.3110 -81.3616 59° Northeast  Level FlightAware Approximate
10:20PM 35.3866 -81.2331 52° Northeast  Level FlightAware Approximate
10:21PM 35.4638 -81.1058 58° Northeast  Level FlightAware Approximate
10:22PM 35.5316 -80.9703 58° Northeast  Level FlightAware Approximate
10:23PM 35.5994 -80.8347 58° Northeast  Level FlightAware Approximate
10:24PM 35.6676 -80.6994 57° Northeast  Level FlightAware Approximate
10:25PM 35.7371 -80.5650 57° Northeast  Level FlightAware Approximate
10:26PM 35.8065 -80.4303 58° Northeast  Level FlightAware Approximate
10:27PM 35.8757 -80.2953 58° Northeast  Level FlightAware Approximate
10:28PM 35.9448 -80.1602 58° Northeast  Level FlightAware Approximate
10:29PM 36.0087 -80.0211 61° Northeast  Level FlightAware Approximate
10:30PM 36.0817 -79.8894 52° Northeast  Level FlightAware Approximate
10:31PM 36.1577 -79.7598 55° Northeast  Level FlightAware Approximate
10:32PM 36.2313 -79.6278 55° Northeast  Level FlightAware Approximate
10:33PM 36.3046 -79.4955 55° Northeast  Level FlightAware Approximate
10:34PM 36.3772 -79.3624 58° Northeast  Level FlightAware Approximate
10:35PM 36.4535 -79.2435 56° Northeast  Level FlightAware Approximate
10:36PM 36.5255 -79.1097 56° Northeast  Level FlightAware Approximate
10:37PM 36.5974 -78.9757 56° Northeast  Level FlightAware Approximate
10:38PM 36.6691 -78.8414 56° Northeast  Level FlightAware Approximate
10:39PM 36.7389 -78.7055 58° Northeast  Level FlightAware Approximate
10:40PM 36.8094 -78.5699 55° Northeast  Level FlightAware Approximate
10:41PM 36.8833 -78.4371 55° Northeast  Level FlightAware Approximate
10:42PM 36.9596 -78.3071 39° Northeast  Level FlightAware Approximate
10:43PM 37.0473 -78.1904 34° Northeast  Level FlightAware Approximate
10:44PM 37.1548 -78.1000 32° Northeast  Level FlightAware Approximate
10:45PM 37.2648 -78.0142 32° Northeast  Level FlightAware Approximate
10:46PM 37.3746 -77.9282 32° Northeast  Level FlightAware Approximate
10:47PM 37.4845 -77.8420 32° Northeast  Level FlightAware Approximate
10:48PM 37.6008 -77.7714 23° Northeast  Level FlightAware Approximate
10:49PM 37.7199 -77.7073 23° Northeast  Level FlightAware Approximate
10:50PM 37.8352 -77.6333 North  Level FlightAware Approximate
10:51PM 37.9511 -77.5661 21° North  Level FlightAware Approximate
10:52PM 38.0699 -77.5017 31° Northeast  Level FlightAware Approximate
10:53PM 38.1865 -77.4313 28° Northeast  Level FlightAware Approximate
10:54PM 38.3032 -77.3651 21° North  Level FlightAware Approximate
10:55PM 38.4304 -77.3500 North  Level FlightAware Approximate
10:56PM 38.5598 -77.3500 North  Level FlightAware Approximate
10:57PM 38.6893 -77.3500 North  Level FlightAware Approximate
10:58PM 38.8187 -77.3500 North  Level FlightAware Approximate
10:59PM 38.9473 -77.3382 11° North  Level FlightAware Approximate
11:00PM 38.9474 -77.4599 North  Level Estimated
11:01PM 38.9474 -77.4599 North  Level Estimated
11:02PM 38.9474 -77.4599 201° Southwest  Level Estimated
11:03PM 38.9474 -77.4599 207° Southwest  Level Estimated
11:04PM 38.9474 -77.4599 191° South  Level Estimated
11:05PM 38.9474 -77.4599 191° South  Level Estimated
11:06PM 38.9474 -77.4599 191° South  Level Estimated
11:07PM 38.9474 -77.4599 191° South  Level Estimated
11:08PM 38.9474 -77.4599 191° South  Level Estimated
11:09PM 38.9474 -77.4599 191° South  Level Estimated
11:10PM 38.9474 -77.4599 191° South  Level Estimated
11:11PM 38.9474 -77.4599 191° South  Level Estimated
11:12PM 38.9474 -77.4599 191° South  Level Estimated
11:13PM 38.9474 -77.4599 191° South  Level Estimated
11:14PM 38.9474 -77.4599 191° South  Level Estimated
11:15PM 38.9474 -77.4599 191° South  Level Estimated
11:16PM 38.9474 -77.4599 191° South  Level Estimated